Time;durP1;ratioP1;P1;durP2;ratioP2;P2;SDS_P1;SDS_P2;PMS_P1;PMS_P2;Temp;Humidity;BMP_temperature;BMP_pressure;BME280_temperature;BME280_humidity;BME280_pressure;Samples;Min_cycle;Max_cycle;Signal;HPM_P1;HPM_P2
2021/08/10 00:01:49;;;;;;;9.45;5.70;;;;;;;16.73;81.33;101146.28;5088951;28;20039;-79
2021/08/10 00:04:15;;;;;;;7.93;5.07;;;;;;;16.73;81.45;101146.28;5080718;28;20035;-79
2021/08/10 00:06:40;;;;;;;13.55;5.10;;;;;;;16.74;81.50;101147.88;5092764;28;20023;-78
2021/08/10 00:09:06;;;;;;;9.63;4.65;;;;;;;16.74;81.70;101147.88;5092746;28;20039;-78
2021/08/10 00:11:31;;;;;;;14.88;5.82;;;;;;;16.73;81.95;101150.97;5092494;28;20364;-79
2021/08/10 00:13:56;;;;;;;9.25;4.18;;;;;;;16.65;81.83;101144.22;5090604;28;20016;-79
2021/08/10 00:16:22;;;;;;;12.77;5.45;;;;;;;16.58;81.91;101143.81;5084415;28;20113;-78
2021/08/10 00:18:47;;;;;;;13.57;5.50;;;;;;;16.53;82.09;101142.00;5093293;28;20028;-79
2021/08/10 00:21:13;;;;;;;12.50;5.32;;;;;;;16.48;82.28;101144.00;5086685;28;20077;-81
2021/08/10 00:23:38;;;;;;;14.23;5.60;;;;;;;16.41;82.46;101150.72;5087854;28;20020;-79
2021/08/10 00:26:03;;;;;;;12.85;5.00;;;;;;;16.35;82.64;101151.94;5086516;28;20028;-78
2021/08/10 00:28:30;;;;;;;15.48;5.97;;;;;;;16.28;82.55;101150.72;5092473;28;20028;-79
2021/08/10 00:30:55;;;;;;;14.20;5.40;;;;;;;16.25;82.79;101157.63;5091706;28;20038;-80
2021/08/10 00:33:22;;;;;;;11.65;5.38;;;;;;;16.20;82.93;101152.22;5091689;28;20349;-80
2021/08/10 00:35:48;;;;;;;13.80;5.40;;;;;;;16.16;83.00;101153.97;5086112;28;20028;-77
2021/08/10 00:38:14;;;;;;;10.60;6.28;;;;;;;16.15;83.23;101152.31;5092103;28;20031;-78
2021/08/10 00:40:40;;;;;;;13.57;6.38;;;;;;;16.11;83.32;101151.31;5091600;28;20104;-78
2021/08/10 00:43:34;;;;;;;16.40;6.32;;;;;;;16.08;83.49;101149.16;5074111;28;20023;-79
2021/08/10 00:46:00;;;;;;;12.07;6.07;;;;;;;16.08;83.41;101146.41;5091018;28;20036;-78
2021/08/10 00:48:25;;;;;;;16.42;6.78;;;;;;;16.10;83.60;101149.69;5091608;28;20131;-78
2021/08/10 00:50:51;;;;;;;12.05;6.13;;;;;;;16.10;83.62;101156.00;5090812;28;20028;-79
2021/08/10 00:53:16;;;;;;;10.35;6.68;;;;;;;16.12;83.87;101159.25;5091962;28;20024;-78
2021/08/10 00:55:41;;;;;;;14.32;6.85;;;;;;;16.11;83.94;101154.88;5082694;28;20023;-79
2021/08/10 00:58:07;;;;;;;19.55;6.63;;;;;;;16.10;83.96;101149.69;5087843;28;20032;-79
2021/08/10 01:00:32;;;;;;;11.25;5.97;;;;;;;16.09;84.20;101143.34;5086584;28;20036;-79
2021/08/10 01:02:58;;;;;;;12.20;6.40;;;;;;;16.08;84.18;101151.91;5093421;28;20024;-79
2021/08/10 01:05:24;;;;;;;15.23;6.53;;;;;;;16.05;84.22;101141.50;5089707;28;20085;-79
2021/08/10 01:07:53;;;;;;;15.32;6.00;;;;;;;16.04;84.27;101150.88;5089147;28;20093;-78
2021/08/10 01:10:34;;;;;;;8.77;5.93;;;;;;;16.01;84.44;101151.47;5075220;28;20028;-79
2021/08/10 01:13:09;;;;;;;16.00;6.90;;;;;;;15.98;84.45;101148.19;5080736;28;20028;-78
2021/08/10 01:15:41;;;;;;;9.90;6.60;;;;;;;15.94;84.65;101146.38;5089138;28;20063;-78
2021/08/10 01:18:08;;;;;;;8.30;6.07;;;;;;;15.93;84.64;101142.81;5068722;28;20048;-78
2021/08/10 01:20:36;;;;;;;13.35;6.68;;;;;;;15.89;84.59;101144.50;5091207;28;20072;-78
2021/08/10 01:23:02;;;;;;;11.20;6.55;;;;;;;15.88;84.88;101147.59;5091119;28;20024;-78
2021/08/10 01:25:58;;;;;;;11.88;6.97;;;;;;;15.87;85.14;101144.00;5072210;28;20071;-78
2021/08/10 01:28:46;;;;;;;11.68;7.68;;;;;;;15.87;85.15;101144.00;5086978;28;20032;-78
2021/08/10 01:31:19;;;;;;;11.27;6.50;;;;;;;15.86;85.10;101139.63;5076280;28;20044;-79
2021/08/10 01:33:46;;;;;;;9.10;6.68;;;;;;;15.84;85.25;101141.84;5088224;28;20107;-79
2021/08/10 01:36:12;;;;;;;10.40;6.70;;;;;;;15.83;85.25;101144.91;5091335;28;20050;-78
2021/08/10 01:38:38;;;;;;;12.07;7.25;;;;;;;15.82;85.47;101143.25;5078092;28;20028;-78
2021/08/10 01:41:04;;;;;;;14.68;6.80;;;;;;;15.82;85.60;101137.75;5094154;28;20481;-79
2021/08/10 01:43:29;;;;;;;8.77;5.82;;;;;;;15.81;85.57;101136.94;5060000;28;20370;-78
2021/08/10 01:45:55;;;;;;;13.20;8.40;;;;;;;15.79;85.64;101124.63;5070481;28;20103;-80
2021/08/10 01:48:20;;;;;;;9.88;6.07;;;;;;;15.79;85.71;101136.44;5092691;28;20043;-79
2021/08/10 01:50:46;;;;;;;12.88;6.70;;;;;;;15.78;85.75;101143.06;5090575;28;20392;-79
2021/08/10 01:53:13;;;;;;;14.90;8.18;;;;;;;15.81;85.97;101136.94;5082232;28;20039;-79
2021/08/10 01:55:39;;;;;;;12.48;6.50;;;;;;;15.84;86.03;101141.03;5090515;28;20015;-78
2021/08/10 01:58:04;;;;;;;17.40;8.02;;;;;;;15.81;86.04;101145.19;5060131;28;20058;-78
2021/08/10 02:00:31;;;;;;;11.45;6.47;;;;;;;15.82;86.18;101137.75;5094510;28;20020;-78
2021/08/10 02:02:57;;;;;;;17.52;7.88;;;;;;;15.79;86.18;101128.19;5066853;28;20024;-79
2021/08/10 02:05:22;;;;;;;11.63;7.28;;;;;;;15.82;86.33;101137.75;5077257;28;20462;-79
2021/08/10 02:07:49;;;;;;;20.67;8.73;;;;;;;15.82;86.61;101127.56;5085443;28;20469;-78
2021/08/10 02:10:14;;;;;;;15.82;8.30;;;;;;;15.80;86.47;101129.84;5052682;28;20039;-78
2021/08/10 02:12:40;;;;;;;14.85;8.05;;;;;;;15.82;86.77;101133.06;5093449;28;20020;-78
2021/08/10 02:15:06;;;;;;;14.00;7.93;;;;;;;15.78;86.71;101126.56;5085428;28;20028;-78
2021/08/10 02:17:31;;;;;;;13.07;7.47;;;;;;;15.78;86.79;101126.56;5086770;28;20070;-78
2021/08/10 02:19:58;;;;;;;16.30;7.53;;;;;;;15.77;86.72;101135.94;5086381;28;20117;-78
2021/08/10 02:22:23;;;;;;;13.57;8.30;;;;;;;15.76;86.80;101137.03;5089193;28;20028;-78
2021/08/10 02:25:09;;;;;;;16.02;7.57;;;;;;;15.77;86.94;101135.94;5091495;28;20624;-78
2021/08/10 02:27:51;;;;;;;11.70;7.20;;;;;;;15.77;86.84;101130.44;5074856;28;20449;-78
2021/08/10 02:30:18;;;;;;;;;;;;;;;15.78;86.56;101137.56;5082953;28;20119;-78
2021/08/10 02:32:44;;;;;;;14.88;8.32;;;;;;;15.78;86.69;101140.31;5082020;28;19966;-78
2021/08/10 02:35:10;;;;;;;14.57;7.90;;;;;;;15.76;86.72;101134.28;5095664;28;20024;-78
2021/08/10 02:37:36;;;;;;;13.98;7.65;;;;;;;15.76;86.82;101139.78;5056009;28;20074;-78
2021/08/10 02:40:06;;;;;;;15.90;8.98;;;;;;;15.74;87.00;101131.00;5092461;28;20040;-78
2021/08/10 02:42:31;;;;;;;13.27;7.95;;;;;;;15.71;87.03;101132.47;5083764;28;20100;-78
2021/08/10 02:44:58;;;;;;;11.98;8.07;;;;;;;15.71;87.40;101128.88;5065999;28;20031;-78
2021/08/10 02:47:24;;;;;;;11.23;7.30;;;;;;;15.68;87.29;101137.69;5062645;28;20749;-78
2021/08/10 02:49:50;;;;;;;9.85;7.35;;;;;;;15.67;87.20;101134.13;5092797;28;20027;-78
2021/08/10 02:52:16;;;;;;;17.65;8.10;;;;;;;15.70;87.26;101127.25;5090934;28;20028;-78
2021/08/10 02:54:42;;;;;;;13.15;7.97;;;;;;;15.73;87.22;101118.41;5095538;28;20032;-78
2021/08/10 02:57:33;;;;;;;20.23;9.80;;;;;;;15.92;87.59;101121.91;5076422;28;20084;-79
2021/08/10 03:00:04;;;;;;;19.88;9.13;;;;;;;16.06;87.32;101121.13;5064560;28;20040;-79
2021/08/10 03:02:34;;;;;;;14.85;8.85;;;;;;;16.15;87.40;101130.31;5092082;28;20381;-79
2021/08/10 03:05:22;;;;;;;13.07;8.63;;;;;;;16.27;87.44;101125.16;5095043;28;20487;-79
2021/08/10 03:07:49;;;;;;;20.77;8.75;;;;;;;16.39;87.31;101127.38;5086276;28;20032;-79
2021/08/10 03:10:14;;;;;;;15.70;8.15;;;;;;;16.48;87.40;101124.75;5076983;28;20077;-79
2021/08/10 03:12:42;;;;;;;12.23;8.13;;;;;;;16.56;87.36;101129.53;5081144;28;20025;-79
2021/08/10 03:15:08;;;;;;;17.42;8.23;;;;;;;16.62;87.39;101115.38;5086681;28;20103;-79
2021/08/10 03:17:36;;;;;;;11.13;7.78;;;;;;;16.67;87.42;101128.22;5085423;28;20297;-79
2021/08/10 03:20:03;;;;;;;13.15;8.55;;;;;;;16.69;87.26;101119.66;5093074;28;20054;-79
2021/08/10 03:22:29;;;;;;;13.00;7.13;;;;;;;16.71;87.52;101120.16;5072404;28;20034;-79
2021/08/10 03:24:54;;;;;;;16.67;7.38;;;;;;;16.71;87.09;101118.22;5094126;28;20036;-78
2021/08/10 03:27:19;;;;;;;17.70;8.13;;;;;;;16.74;87.13;101123.09;5074833;28;20024;-79
2021/08/10 03:29:46;;;;;;;13.68;7.38;;;;;;;16.76;86.97;101122.81;5081223;28;20024;-79
2021/08/10 03:32:13;;;;;;;16.77;7.30;;;;;;;16.78;87.05;101121.41;5086651;28;20059;-79
2021/08/10 03:34:39;;;;;;;11.90;6.78;;;;;;;16.82;86.80;101118.84;5091384;28;20024;-78
2021/08/10 03:37:04;;;;;;;15.00;7.57;;;;;;;16.85;86.57;101119.03;5076924;28;20019;-79
2021/08/10 03:39:29;;;;;;;18.20;7.50;;;;;;;16.90;86.46;101128.34;5071760;28;20035;-78
2021/08/10 03:41:55;;;;;;;12.00;6.60;;;;;;;16.93;86.23;101127.72;5088262;28;20085;-78
2021/08/10 03:44:21;;;;;;;12.90;6.82;;;;;;;16.98;86.22;101122.09;5078117;28;20048;-78
2021/08/10 03:46:46;;;;;;;13.35;6.80;;;;;;;17.00;85.89;101126.19;5089580;28;20363;-79
2021/08/10 03:49:13;;;;;;;16.90;6.63;;;;;;;17.02;85.79;101123.09;5074280;28;20487;-78
2021/08/10 03:51:39;;;;;;;12.52;6.55;;;;;;;17.04;85.56;101121.66;5074429;28;20043;-79
2021/08/10 03:54:05;;;;;;;14.57;6.57;;;;;;;17.08;85.41;101124.63;5092364;28;20032;-79
2021/08/10 03:56:31;;;;;;;13.65;6.07;;;;;;;17.12;85.07;101125.63;5093917;28;20032;-79
2021/08/10 03:58:56;;;;;;;11.38;5.93;;;;;;;17.14;84.69;101128.09;5067574;28;20023;-80
2021/08/10 04:01:23;;;;;;;10.82;5.40;;;;;;;17.19;84.39;101120.53;5073894;28;20046;-80
2021/08/10 04:03:49;;;;;;;11.25;5.22;;;;;;;17.25;84.17;101124.78;5081486;28;20077;-78
2021/08/10 04:06:14;;;;;;;15.88;5.55;;;;;;;17.28;84.05;101126.91;5089268;28;20023;-79
2021/08/10 04:08:40;;;;;;;8.70;5.30;;;;;;;17.33;83.67;101125.19;5053806;28;20034;-79
2021/08/10 04:11:05;;;;;;;17.10;6.47;;;;;;;17.36;83.56;101130.06;5091805;28;20028;-79
2021/08/10 04:13:32;;;;;;;10.68;6.40;;;;;;;17.34;83.69;101124.84;5085394;28;20027;-80
2021/08/10 04:16:02;;;;;;;9.30;5.57;;;;;;;17.30;83.56;101129.38;5090734;28;20380;-80
2021/08/10 04:18:28;;;;;;;9.23;6.35;;;;;;;17.30;83.87;101129.38;5091991;28;20077;-80
2021/08/10 04:20:53;;;;;;;13.63;6.05;;;;;;;17.29;83.90;101125.78;5092468;28;20036;-80
2021/08/10 04:23:19;;;;;;;9.60;6.15;;;;;;;17.29;84.07;101125.78;5082470;28;20017;-78
2021/08/10 04:25:44;;;;;;;10.38;6.20;;;;;;;17.29;84.15;101123.03;5083097;28;20186;-79
2021/08/10 04:28:10;;;;;;;8.25;5.70;;;;;;;17.29;83.98;101123.03;5091788;28;20027;-80
2021/08/10 04:30:37;;;;;;;11.27;4.78;;;;;;;17.28;83.95;101121.41;5092098;28;20464;-80
2021/08/10 04:33:02;;;;;;;12.93;5.88;;;;;;;17.27;83.83;101128.06;5089432;28;20028;-81
2021/08/10 04:35:28;;;;;;;13.05;6.18;;;;;;;17.28;83.89;101123.34;5093467;28;20086;-80
2021/08/10 04:37:53;;;;;;;10.68;6.00;;;;;;;17.28;83.67;101123.34;5092555;28;20027;-80
2021/08/10 04:40:19;;;;;;;10.55;5.72;;;;;;;17.30;83.84;101123.88;5093358;28;20402;-79
2021/08/10 04:42:44;;;;;;;10.77;6.15;;;;;;;17.32;83.87;101124.34;5087497;28;20027;-80
2021/08/10 04:45:10;;;;;;;12.45;6.30;;;;;;;17.32;83.92;101124.34;5091113;28;20023;-80
2021/08/10 04:47:35;;;;;;;13.35;6.43;;;;;;;17.35;84.01;101128.41;5093550;28;20425;-80
2021/08/10 04:50:01;;;;;;;12.75;6.15;;;;;;;17.39;83.86;101134.97;5091412;28;20020;-80
2021/08/10 04:52:26;;;;;;;12.65;6.38;;;;;;;17.39;83.53;101135.78;5091311;28;20028;-80
2021/08/10 04:54:52;;;;;;;14.32;6.00;;;;;;;17.41;83.80;101139.03;5092646;28;20101;-80
2021/08/10 04:57:17;;;;;;;10.30;5.43;;;;;;;17.43;83.92;101142.31;5084113;28;20020;-80
2021/08/10 04:59:42;;;;;;;12.30;5.68;;;;;;;17.45;83.83;101144.72;5082602;28;20397;-80
2021/08/10 05:02:08;;;;;;;17.15;5.90;;;;;;;17.48;83.89;101133.88;5085390;28;20024;-80
2021/08/10 05:04:34;;;;;;;12.05;5.55;;;;;;;17.51;83.68;101137.97;5091402;28;20019;-80
2021/08/10 05:07:02;;;;;;;8.82;5.25;;;;;;;17.52;83.50;101150.63;5091664;28;20419;-80
2021/08/10 05:09:30;;;;;;;11.18;5.28;;;;;;;17.54;83.47;101142.84;5093992;28;20469;-80
2021/08/10 05:11:57;;;;;;;16.02;6.00;;;;;;;17.49;83.34;101151.28;5087056;28;20032;-79
2021/08/10 05:14:23;;;;;;;15.25;5.60;;;;;;;17.43;83.20;101141.47;5096331;28;20052;-79
2021/08/10 05:16:48;;;;;;;11.05;5.25;;;;;;;17.37;83.14;101143.53;5094101;28;20111;-80
2021/08/10 05:19:14;;;;;;;7.68;4.47;;;;;;;17.27;82.84;101141.84;5093333;28;20030;-79
2021/08/10 05:21:39;;;;;;;8.93;4.50;;;;;;;17.15;82.62;101138.78;5092580;28;20016;-80
2021/08/10 05:24:05;;;;;;;6.90;3.42;;;;;;;17.06;82.23;101133.19;5085356;28;20484;-80
2021/08/10 05:26:30;;;;;;;14.68;4.53;;;;;;;16.98;81.92;101157.91;5083052;28;20028;-80
2021/08/10 05:28:55;;;;;;;7.40;4.55;;;;;;;16.79;82.25;101150.56;5090019;28;20374;-81
2021/08/10 05:31:21;;;;;;;12.77;4.93;;;;;;;16.55;82.95;101144.44;5082130;28;20016;-84
2021/08/10 05:33:46;;;;;;;10.13;4.35;;;;;;;16.43;83.37;101145.75;5086408;28;20032;-84
2021/08/10 05:36:12;;;;;;;13.88;5.43;;;;;;;16.41;83.59;101149.91;5091936;28;20039;-85
2021/08/10 05:38:37;;;;;;;11.82;4.70;;;;;;;16.41;83.58;101150.72;5082412;28;20036;-86
2021/08/10 05:41:03;;;;;;;8.00;5.07;;;;;;;16.43;83.71;101142.19;5091150;28;21655;-91
2021/08/10 05:43:28;;;;;;;12.27;5.90;;;;;;;16.46;84.04;101141.56;5086429;28;20454;-91
2021/08/10 05:45:53;;;;;;;16.23;6.05;;;;;;;16.51;84.17;101138.72;5085094;28;20031;-90
2021/08/10 05:48:19;;;;;;;9.07;5.07;;;;;;;16.54;84.07;101137.31;5084651;28;20035;-89
2021/08/10 05:50:46;;;;;;;8.68;5.07;;;;;;;16.56;84.09;101135.03;5071563;28;20027;-89
2021/08/10 05:53:11;;;;;;;11.05;4.78;;;;;;;16.59;84.20;101137.19;5095304;28;20494;-88
2021/08/10 05:55:38;;;;;;;8.20;4.93;;;;;;;16.62;84.27;101133.84;5083606;28;20019;-90
2021/08/10 05:58:03;;;;;;;10.52;5.85;;;;;;;16.67;84.25;101141.16;5086364;28;20027;-89
2021/08/10 06:00:29;;;;;;;9.07;4.72;;;;;;;16.69;84.42;101141.66;5092337;28;20024;-94
2021/08/10 06:02:55;;;;;;;8.95;5.45;;;;;;;16.69;84.14;101148.00;5087662;28;20453;-89
2021/08/10 06:05:20;;;;;;;10.02;5.43;;;;;;;16.69;84.54;101150.75;5082997;28;20024;-91
2021/08/10 06:07:46;;;;;;;11.57;5.35;;;;;;;16.66;84.67;101145.84;5085808;28;20061;-91
2021/08/10 06:10:11;;;;;;;8.55;5.20;;;;;;;16.65;84.66;101149.75;5091616;28;20028;-92
2021/08/10 06:12:37;;;;;;;15.82;5.60;;;;;;;16.62;84.65;101151.16;5090322;28;20027;-93
2021/08/10 06:15:04;;;;;;;14.40;6.07;;;;;;;16.60;84.78;101147.09;5091381;28;20042;-87
2021/08/10 06:17:29;;;;;;;12.93;6.15;;;;;;;16.61;84.93;101148.69;5091313;28;20107;-90
2021/08/10 06:19:55;;;;;;;13.30;5.85;;;;;;;16.62;85.09;101150.34;5087304;28;20085;-91
2021/08/10 06:22:21;;;;;;;11.70;5.82;;;;;;;16.62;85.49;101153.09;5059950;28;20027;-89
2021/08/10 06:24:47;;;;;;;10.55;5.80;;;;;;;16.63;85.16;101146.47;5095327;28;20027;-88
2021/08/10 06:27:12;;;;;;;11.88;5.53;;;;;;;16.68;85.06;101142.81;5089113;28;20020;-90
2021/08/10 06:29:38;;;;;;;10.85;5.50;;;;;;;16.69;85.03;101145.22;5076979;28;20085;-92
2021/08/10 06:32:04;;;;;;;11.18;5.70;;;;;;;16.72;84.92;101144.63;5090776;28;20032;-88
2021/08/10 06:34:29;;;;;;;10.60;5.65;;;;;;;16.75;85.08;101149.53;5090088;28;20026;-87
2021/08/10 06:36:54;;;;;;;11.45;5.90;;;;;;;16.81;85.13;101151.09;5085183;28;20326;-90
2021/08/10 06:39:20;;;;;;;15.52;6.40;;;;;;;16.90;85.02;101139.34;5094380;28;20469;-86
2021/08/10 06:41:45;;;;;;;10.07;6.32;;;;;;;16.95;84.99;101136.50;5094689;28;20031;-89
2021/08/10 06:44:11;;;;;;;10.32;5.50;;;;;;;16.96;84.76;101138.91;5092278;28;20453;-87
2021/08/10 06:46:36;;;;;;;8.75;5.30;;;;;;;16.99;84.63;101135.53;5089523;28;20051;-85
2021/08/10 06:49:01;;;;;;;9.10;5.28;;;;;;;17.04;84.36;101134.63;5067205;28;20016;-88
2021/08/10 06:51:28;;;;;;;11.13;5.53;;;;;;;17.04;84.32;101129.13;5095264;28;20023;-88
2021/08/10 06:53:54;;;;;;;8.48;5.13;;;;;;;17.08;84.02;101132.91;5084811;28;20035;-88
2021/08/10 06:56:19;;;;;;;10.18;5.28;;;;;;;17.13;83.83;101132.75;5093553;28;20016;-88
2021/08/10 06:58:45;;;;;;;12.85;6.30;;;;;;;17.13;83.62;101127.25;5085740;28;20046;-87
2021/08/10 07:01:10;;;;;;;10.95;4.97;;;;;;;17.16;83.53;101123.91;5094422;28;20027;-89
2021/08/10 07:03:35;;;;;;;8.63;5.55;;;;;;;17.21;83.58;101128.47;5090639;28;20024;-87
2021/08/10 07:06:01;;;;;;;9.60;5.63;;;;;;;17.28;83.46;101124.16;5092365;28;20032;-89
2021/08/10 07:08:26;;;;;;;8.43;5.63;;;;;;;17.36;83.55;101130.06;5093195;28;20031;-88
2021/08/10 07:10:51;;;;;;;7.32;5.25;;;;;;;17.43;83.34;101124.94;5090103;28;20516;-89
2021/08/10 07:13:17;;;;;;;12.77;6.05;;;;;;;17.48;83.17;101130.31;5081443;28;20036;-90
2021/08/10 07:15:42;;;;;;;12.55;6.10;;;;;;;17.56;83.12;101135.09;5089745;28;20128;-88
2021/08/10 07:18:08;;;;;;;8.40;6.05;;;;;;;17.63;83.01;101135.47;5086991;28;20089;-87
2021/08/10 07:20:33;;;;;;;9.43;5.97;;;;;;;17.68;82.86;101132.59;5083468;28;20024;-89
2021/08/10 07:22:59;;;;;;;13.38;6.05;;;;;;;17.74;82.89;101131.34;5089505;28;20021;-89
2021/08/10 07:25:24;;;;;;;10.52;6.18;;;;;;;17.78;82.88;101122.44;5082235;28;20543;-90
2021/08/10 07:27:49;;;;;;;11.35;6.97;;;;;;;17.82;82.83;101129.00;5083725;28;20029;-89
2021/08/10 07:30:16;;;;;;;13.93;7.38;;;;;;;17.87;82.95;101128.84;5090650;28;20024;-90
2021/08/10 07:32:42;;;;;;;11.98;7.18;;;;;;;17.93;82.83;101133.94;5089307;28;20023;-89
2021/08/10 07:35:09;;;;;;;8.00;5.90;;;;;;;17.99;82.88;101125.53;5085415;28;20078;-89
2021/08/10 07:37:39;;;;;;;11.27;6.20;;;;;;;18.03;82.79;101123.75;5086588;28;20024;-89
2021/08/10 07:40:05;;;;;;;11.00;6.57;;;;;;;18.06;82.65;101125.88;5083631;28;20089;-89
2021/08/10 07:42:31;;;;;;;14.07;7.25;;;;;;;18.11;82.88;101125.75;5079136;28;20154;-90
2021/08/10 07:44:56;;;;;;;15.25;7.43;;;;;;;18.14;82.71;101131.47;5079143;28;20051;-89
2021/08/10 07:47:21;;;;;;;11.02;6.15;;;;;;;18.14;82.24;101117.66;5085276;28;20050;-88
2021/08/10 07:49:47;;;;;;;9.88;6.20;;;;;;;18.12;82.22;101130.97;5090559;28;20028;-89
2021/08/10 07:52:12;;;;;;;15.30;7.45;;;;;;;18.10;82.09;101133.22;5087300;28;20024;-88
2021/08/10 07:54:38;;;;;;;11.05;6.95;;;;;;;18.08;81.88;101129.94;5091609;28;20481;-88
2021/08/10 07:57:04;;;;;;;11.18;6.88;;;;;;;18.05;81.97;101125.06;5090535;28;20031;-89
2021/08/10 07:59:29;;;;;;;12.25;6.03;;;;;;;18.06;82.06;101135.00;5083691;28;20036;-90
2021/08/10 08:01:56;;;;;;;13.95;7.00;;;;;;;18.05;82.04;101121.50;5087208;28;20037;-89
2021/08/10 08:04:22;;;;;;;10.80;6.22;;;;;;;18.01;82.01;101129.59;5077432;28;20479;-88
2021/08/10 08:06:47;;;;;;;12.18;6.18;;;;;;;18.02;82.29;101120.19;5087930;28;20016;-87
2021/08/10 08:09:13;;;;;;;14.45;7.30;;;;;;;18.01;82.06;101129.59;5079284;28;20036;-90
2021/08/10 08:11:38;;;;;;;13.30;6.55;;;;;;;17.96;82.02;101126.97;5087641;28;20027;-87
2021/08/10 08:14:04;;;;;;;12.55;6.47;;;;;;;17.90;82.53;101128.25;5082389;28;20027;-90
2021/08/10 08:16:29;;;;;;;8.27;5.28;;;;;;;17.88;82.52;101124.97;5067536;28;20427;-88
2021/08/10 08:18:54;;;;;;;8.60;4.70;;;;;;;17.84;82.59;101123.97;5072573;28;20470;-87
2021/08/10 08:21:20;;;;;;;8.50;4.30;;;;;;;17.86;82.46;101122.50;5089368;28;20481;-88
2021/08/10 08:23:45;;;;;;;8.65;4.28;;;;;;;17.87;82.07;101117.81;5083698;28;20032;-88
2021/08/10 08:26:11;;;;;;;7.63;4.15;;;;;;;17.89;82.11;101121.06;5081613;28;20071;-87
2021/08/10 08:28:37;;;;;;;6.95;4.50;;;;;;;17.94;81.74;101123.72;5080108;28;20028;-90
2021/08/10 08:31:03;;;;;;;8.40;3.67;;;;;;;18.03;81.65;101126.50;5086851;28;20028;-85
2021/08/10 08:33:28;;;;;;;9.70;4.75;;;;;;;18.12;81.42;101125.44;5084719;28;20393;-91
2021/08/10 08:35:53;;;;;;;8.23;4.55;;;;;;;18.26;81.15;101122.59;5085771;28;20070;-89
2021/08/10 08:38:20;;;;;;;8.48;3.70;;;;;;;18.34;80.76;101115.47;5083426;28;20036;-91
2021/08/10 08:40:46;;;;;;;7.45;3.80;;;;;;;18.30;79.79;101120.00;5096312;28;20117;-89
2021/08/10 08:43:12;;;;;;;9.68;4.30;;;;;;;18.29;80.00;101123.91;5083731;28;20078;-90
2021/08/10 08:45:41;;;;;;;5.72;3.63;;;;;;;18.30;79.46;101123.56;5081318;28;20070;-80
2021/08/10 08:48:07;;;;;;;11.32;4.05;;;;;;;18.32;79.57;101115.78;5071080;28;20031;-79
2021/08/10 08:50:33;;;;;;;10.73;5.00;;;;;;;18.33;79.30;101116.59;5054928;28;20370;-78
2021/08/10 08:52:58;;;;;;;6.72;3.30;;;;;;;18.35;79.39;101117.09;5071001;28;20486;-78
2021/08/10 08:55:24;;;;;;;7.93;3.70;;;;;;;18.40;79.39;101119.72;5038964;28;20036;-80
2021/08/10 08:57:49;;;;;;;6.78;3.20;;;;;;;18.51;78.84;101111.97;5083713;28;20029;-79
2021/08/10 09:00:15;;;;;;;9.50;3.33;;;;;;;18.54;78.56;101117.66;5086392;28;20028;-78
2021/08/10 09:02:41;;;;;;;6.75;3.10;;;;;;;18.51;78.37;101111.97;5085229;28;20470;-78
2021/08/10 09:05:07;;;;;;;7.05;3.58;;;;;;;18.51;78.16;101117.50;5074985;28;20082;-77
2021/08/10 09:07:32;;;;;;;9.05;3.35;;;;;;;18.56;78.65;101123.69;5088890;28;20113;-78
2021/08/10 09:10:09;;;;;;;9.00;3.33;;;;;;;18.53;78.70;101118.00;5081344;28;20031;-78
2021/08/10 09:12:46;;;;;;;9.07;3.03;;;;;;;18.49;78.42;101122.50;5081342;28;20074;-79
2021/08/10 09:15:32;;;;;;;5.63;2.85;;;;;;;18.44;78.17;101126.22;5089989;28;20107;-78
2021/08/10 09:18:07;;;;;;;7.88;2.83;;;;;;;18.49;78.18;101128.84;5085683;28;20477;-79
2021/08/10 09:20:32;;;;;;;7.07;2.92;;;;;;;18.56;78.15;101120.91;5090881;28;20038;-79
2021/08/10 09:22:58;;;;;;;6.57;2.75;;;;;;;18.64;77.91;101122.91;5084866;28;20024;-78
2021/08/10 09:25:24;;;;;;;4.00;2.47;;;;;;;18.64;77.58;101122.91;5064927;28;20031;-79
2021/08/10 09:27:49;;;;;;;4.47;1.88;;;;;;;18.52;77.11;101125.44;5086910;28;20032;-79
2021/08/10 09:30:24;;;;;;;4.20;1.30;;;;;;;18.19;75.73;101131.31;5082819;28;20024;-78
2021/08/10 09:33:00;;;;;;;3.53;1.52;;;;;;;17.93;74.72;101133.13;5081310;28;20032;-78
2021/08/10 09:35:33;;;;;;;3.20;0.90;;;;;;;17.75;73.65;101132.97;5082418;28;20013;-77
2021/08/10 09:38:05;;;;;;;1.95;0.73;;;;;;;17.65;73.35;101130.47;5084331;28;20456;-80
2021/08/10 09:40:32;;;;;;;2.17;1.00;;;;;;;17.66;73.59;101129.34;5087670;28;20075;-79
2021/08/10 09:43:25;;;;;;;5.25;1.02;;;;;;;17.71;73.65;101122.88;5078056;28;20281;-78
2021/08/10 09:46:23;;;;;;;3.22;1.00;;;;;;;17.73;73.28;101117.84;5085999;28;20147;-79
2021/08/10 09:48:53;;;;;;;2.33;0.90;;;;;;;17.72;73.33;101119.00;5040212;28;20139;-79
2021/08/10 09:51:28;;;;;;;3.40;0.80;;;;;;;17.75;72.92;101116.41;5086630;28;20501;-80
2021/08/10 09:53:57;;;;;;;3.13;1.73;;;;;;;17.72;73.26;101113.47;5084750;28;20128;-77
2021/08/10 09:56:49;;;;;;;4.55;1.63;;;;;;;17.51;73.94;101110.41;5087851;28;20042;-78
2021/08/10 09:59:22;;;;;;;6.43;1.77;;;;;;;17.27;74.78;101100.50;5062731;28;20036;-77
2021/08/10 10:01:50;;;;;;;4.97;1.95;;;;;;;17.16;75.48;101093.59;5088740;28;20028;-77
2021/08/10 10:04:29;;;;;;;5.45;2.30;;;;;;;17.19;76.18;101097.69;5087747;28;20027;-76
2021/08/10 10:06:58;;;;;;;7.43;2.97;;;;;;;17.20;76.35;101091.84;5083585;28;20032;-77
2021/08/10 10:09:25;;;;;;;5.63;2.42;;;;;;;17.22;76.71;101092.34;5072708;28;20056;-76
2021/08/10 10:11:53;;;;;;;5.68;2.38;;;;;;;17.27;76.90;101103.25;5087096;28;20182;-76
2021/08/10 10:14:20;;;;;;;5.82;2.28;;;;;;;17.25;76.98;101112.97;5078450;28;20017;-76
2021/08/10 10:16:48;;;;;;;5.70;2.72;;;;;;;17.26;77.61;101115.38;5092318;28;20031;-76
2021/08/10 10:19:14;;;;;;;6.40;2.63;;;;;;;17.26;78.01;101112.63;5088861;28;20036;-75
2021/08/10 10:21:45;;;;;;;6.47;3.00;;;;;;;17.21;78.39;101110.00;5093054;28;20294;-75
2021/08/10 10:24:11;;;;;;;8.77;3.00;;;;;;;17.17;78.88;101102.69;5090803;28;20047;-75
2021/08/10 10:26:39;;;;;;;6.78;3.63;;;;;;;17.12;79.48;101100.03;5089781;28;20469;-76
2021/08/10 10:29:04;;;;;;;10.45;4.22;;;;;;;17.08;79.92;101100.66;5092050;28;20036;-76
2021/08/10 10:31:31;;;;;;;7.45;3.45;;;;;;;17.10;80.08;101092.06;5089799;28;20046;-76
2021/08/10 10:33:57;;;;;;;7.72;3.67;;;;;;;17.22;80.30;101089.59;5081584;28;20040;-76
2021/08/10 10:36:22;;;;;;;12.80;4.13;;;;;;;17.37;80.19;101095.88;5073718;28;20077;-75
2021/08/10 10:38:48;;;;;;;14.77;4.50;;;;;;;17.41;80.02;101100.44;5091264;28;20032;-76
2021/08/10 10:41:13;;;;;;;10.15;4.05;;;;;;;17.39;80.24;101096.38;5073018;28;20047;-78
2021/08/10 10:43:39;;;;;;;17.00;4.45;;;;;;;17.39;80.73;101094.44;5069067;28;20040;-76
2021/08/10 10:46:24;;;;;;;11.40;4.20;;;;;;;17.34;80.93;101089.03;5091932;28;20032;-75
2021/08/10 10:48:49;;;;;;;9.95;3.08;;;;;;;17.26;80.91;101103.56;5083764;28;20046;-75
2021/08/10 10:51:15;;;;;;;10.57;3.72;;;;;;;17.20;81.21;101113.06;5093639;28;20478;-75
2021/08/10 10:53:44;;;;;;;12.93;3.78;;;;;;;17.22;81.40;101102.56;5091770;28;20016;-75
2021/08/10 10:56:25;;;;;;;10.70;4.80;;;;;;;17.26;81.72;101098.84;5093055;28;20477;-76
2021/08/10 10:58:54;;;;;;;15.77;4.32;;;;;;;17.36;81.56;101097.00;5091596;28;20092;-76
2021/08/10 11:01:30;;;;;;;8.85;3.50;;;;;;;17.43;81.67;101097.38;5091332;28;20110;-76
2021/08/10 11:04:06;;;;;;;9.27;3.47;;;;;;;17.48;81.50;101086.22;5074063;28;20024;-77
2021/08/10 11:06:36;;;;;;;6.97;3.55;;;;;;;17.50;81.42;101086.72;5093314;28;20417;-76
2021/08/10 11:09:02;;;;;;;10.43;3.28;;;;;;;17.61;81.59;101093.63;5088056;28;20030;-76
2021/08/10 11:11:47;;;;;;;12.23;3.45;;;;;;;17.72;81.70;101092.22;5091462;28;20385;-77
2021/08/10 11:14:37;;;;;;;8.85;3.20;;;;;;;17.84;81.46;101096.38;5087821;28;20101;-79
2021/08/10 11:17:12;;;;;;;7.95;3.63;;;;;;;17.91;80.90;101099.50;5091659;28;20028;-82
2021/08/10 11:19:39;;;;;;;13.88;4.25;;;;;;;17.94;81.02;101096.13;5084087;28;20020;-82
2021/08/10 11:22:17;;;;;;;9.75;3.65;;;;;;;17.98;81.16;101091.63;5083298;28;20033;-80